sensor_id;sensor_type;location;lat;lon;timestamp;P1;durP1;ratioP1;P2;durP2;ratioP2
62925;SDS011;55732;52.248;-0.844;2022-12-07T00:04:00;13.00;;;6.10;;
62925;SDS011;55732;52.248;-0.844;2022-12-07T00:06:33;13.60;;;6.00;;
62925;SDS011;55732;52.248;-0.844;2022-12-07T00:09:00;15.70;;;5.80;;
62925;SDS011;55732;52.248;-0.844;2022-12-07T00:11:26;10.80;;;5.50;;
62925;SDS011;55732;52.248;-0.844;2022-12-07T00:13:52;11.70;;;6.00;;
62925;SDS011;55732;52.248;-0.844;2022-12-07T00:16:20;9.90;;;5.90;;
62925;SDS011;55732;52.248;-0.844;2022-12-07T00:18:47;11.40;;;5.70;;
62925;SDS011;55732;52.248;-0.844;2022-12-07T00:21:13;12.00;;;5.50;;
62925;SDS011;55732;52.248;-0.844;2022-12-07T00:23:41;11.40;;;5.60;;
62925;SDS011;55732;52.248;-0.844;2022-12-07T00:26:09;17.60;;;6.10;;
62925;SDS011;55732;52.248;-0.844;2022-12-07T00:28:36;9.90;;;5.90;;
62925;SDS011;55732;52.248;-0.844;2022-12-07T00:31:09;10.20;;;5.20;;
62925;SDS011;55732;52.248;-0.844;2022-12-07T00:33:37;14.20;;;5.10;;
62925;SDS011;55732;52.248;-0.844;2022-12-07T00:36:04;10.70;;;5.90;;
62925;SDS011;55732;52.248;-0.844;2022-12-07T00:38:33;13.30;;;5.60;;
62925;SDS011;55732;52.248;-0.844;2022-12-07T00:41:04;11.60;;;5.60;;
62925;SDS011;55732;52.248;-0.844;2022-12-07T00:43:31;10.90;;;5.20;;
62925;SDS011;55732;52.248;-0.844;2022-12-07T00:45:57;6.90;;;4.20;;
62925;SDS011;55732;52.248;-0.844;2022-12-07T00:48:23;7.20;;;3.40;;
62925;SDS011;55732;52.248;-0.844;2022-12-07T00:50:49;14.10;;;5.80;;
62925;SDS011;55732;52.248;-0.844;2022-12-07T00:53:15;9.60;;;4.80;;
62925;SDS011;55732;52.248;-0.844;2022-12-07T00:55:40;10.60;;;4.30;;
62925;SDS011;55732;52.248;-0.844;2022-12-07T00:58:07;11.20;;;5.60;;
62925;SDS011;55732;52.248;-0.844;2022-12-07T01:00:33;10.40;;;5.10;;
62925;SDS011;55732;52.248;-0.844;2022-12-07T01:03:01;11.90;;;5.00;;
62925;SDS011;55732;52.248;-0.844;2022-12-07T01:05:27;8.50;;;4.10;;
62925;SDS011;55732;52.248;-0.844;2022-12-07T01:07:53;8.60;;;4.70;;
62925;SDS011;55732;52.248;-0.844;2022-12-07T01:10:18;15.80;;;5.40;;
62925;SDS011;55732;52.248;-0.844;2022-12-07T01:12:44;9.40;;;5.10;;
62925;SDS011;55732;52.248;-0.844;2022-12-07T01:15:10;8.60;;;4.30;;
62925;SDS011;55732;52.248;-0.844;2022-12-07T01:17:36;11.70;;;4.60;;
62925;SDS011;55732;52.248;-0.844;2022-12-07T01:20:01;7.30;;;4.10;;
62925;SDS011;55732;52.248;-0.844;2022-12-07T01:22:27;10.70;;;5.20;;
62925;SDS011;55732;52.248;-0.844;2022-12-07T01:24:52;10.00;;;4.50;;
62925;SDS011;55732;52.248;-0.844;2022-12-07T01:27:18;10.20;;;5.30;;
62925;SDS011;55732;52.248;-0.844;2022-12-07T01:29:43;10.90;;;5.00;;
62925;SDS011;55732;52.248;-0.844;2022-12-07T01:32:09;9.20;;;5.20;;
62925;SDS011;55732;52.248;-0.844;2022-12-07T01:34:35;8.60;;;5.20;;
62925;SDS011;55732;52.248;-0.844;2022-12-07T01:37:00;12.80;;;5.10;;
62925;SDS011;55732;52.248;-0.844;2022-12-07T01:39:26;14.10;;;5.30;;
62925;SDS011;55732;52.248;-0.844;2022-12-07T01:41:52;11.80;;;5.40;;
62925;SDS011;55732;52.248;-0.844;2022-12-07T01:46:59;11.40;;;5.70;;
62925;SDS011;55732;52.248;-0.844;2022-12-07T01:54:57;11.20;;;5.60;;
62925;SDS011;55732;52.248;-0.844;2022-12-07T01:57:26;12.30;;;5.90;;
62925;SDS011;55732;52.248;-0.844;2022-12-07T01:59:53;13.00;;;5.20;;
62925;SDS011;55732;52.248;-0.844;2022-12-07T02:02:28;11.30;;;5.40;;
62925;SDS011;55732;52.248;-0.844;2022-12-07T02:04:59;11.00;;;5.80;;
62925;SDS011;55732;52.248;-0.844;2022-12-07T02:07:26;10.10;;;6.10;;
62925;SDS011;55732;52.248;-0.844;2022-12-07T02:09:52;10.20;;;6.00;;
62925;SDS011;55732;52.248;-0.844;2022-12-07T02:12:18;16.80;;;6.70;;
62925;SDS011;55732;52.248;-0.844;2022-12-07T02:14:45;11.20;;;6.00;;
62925;SDS011;55732;52.248;-0.844;2022-12-07T02:17:13;14.50;;;6.20;;
62925;SDS011;55732;52.248;-0.844;2022-12-07T02:22:50;10.80;;;6.40;;
62925;SDS011;55732;52.248;-0.844;2022-12-07T02:28:27;12.30;;;6.80;;
62925;SDS011;55732;52.248;-0.844;2022-12-07T02:31:00;12.30;;;6.90;;
62925;SDS011;55732;52.248;-0.844;2022-12-07T02:33:33;16.60;;;6.70;;
62925;SDS011;55732;52.248;-0.844;2022-12-07T02:38:40;14.80;;;7.40;;
62925;SDS011;55732;52.248;-0.844;2022-12-07T02:41:18;15.00;;;6.90;;
62925;SDS011;55732;52.248;-0.844;2022-12-07T02:43:52;16.00;;;6.80;;
62925;SDS011;55732;52.248;-0.844;2022-12-07T02:46:21;11.40;;;6.10;;
62925;SDS011;55732;52.248;-0.844;2022-12-07T02:48:51;11.60;;;6.90;;
62925;SDS011;55732;52.248;-0.844;2022-12-07T02:51:18;17.60;;;5.80;;
62925;SDS011;55732;52.248;-0.844;2022-12-07T02:53:44;11.20;;;5.50;;
62925;SDS011;55732;52.248;-0.844;2022-12-07T03:02:07;11.90;;;5.70;;
62925;SDS011;55732;52.248;-0.844;2022-12-07T03:05:10;13.60;;;5.90;;
62925;SDS011;55732;52.248;-0.844;2022-12-07T03:10:22;11.70;;;4.90;;
62925;SDS011;55732;52.248;-0.844;2022-12-07T03:21:28;12.70;;;5.40;;
62925;SDS011;55732;52.248;-0.844;2022-12-07T03:23:59;12.70;;;5.20;;
62925;SDS011;55732;52.248;-0.844;2022-12-07T03:26:30;10.40;;;4.70;;
62925;SDS011;55732;52.248;-0.844;2022-12-07T03:29:00;15.20;;;4.90;;
62925;SDS011;55732;52.248;-0.844;2022-12-07T03:31:31;12.00;;;4.90;;
62925;SDS011;55732;52.248;-0.844;2022-12-07T03:34:07;9.70;;;4.60;;
62925;SDS011;55732;52.248;-0.844;2022-12-07T03:37:00;9.50;;;4.30;;
62925;SDS011;55732;52.248;-0.844;2022-12-07T03:39:37;11.00;;;4.80;;
62925;SDS011;55732;52.248;-0.844;2022-12-07T03:42:10;12.60;;;4.50;;
62925;SDS011;55732;52.248;-0.844;2022-12-07T03:44:36;9.00;;;4.90;;
62925;SDS011;55732;52.248;-0.844;2022-12-07T03:49:43;8.90;;;4.20;;
62925;SDS011;55732;52.248;-0.844;2022-12-07T03:52:20;9.90;;;4.20;;
62925;SDS011;55732;52.248;-0.844;2022-12-07T03:54:53;14.40;;;5.00;;
62925;SDS011;55732;52.248;-0.844;2022-12-07T03:57:29;9.00;;;5.10;;
62925;SDS011;55732;52.248;-0.844;2022-12-07T03:59:58;12.90;;;5.00;;
62925;SDS011;55732;52.248;-0.844;2022-12-07T04:02:26;13.00;;;4.40;;
62925;SDS011;55732;52.248;-0.844;2022-12-07T04:04:54;7.60;;;4.40;;
62925;SDS011;55732;52.248;-0.844;2022-12-07T04:07:20;11.70;;;5.10;;
62925;SDS011;55732;52.248;-0.844;2022-12-07T04:09:46;10.10;;;4.40;;
62925;SDS011;55732;52.248;-0.844;2022-12-07T04:12:12;10.20;;;5.10;;
62925;SDS011;55732;52.248;-0.844;2022-12-07T04:14:37;13.70;;;4.90;;
62925;SDS011;55732;52.248;-0.844;2022-12-07T04:17:02;17.60;;;6.00;;
62925;SDS011;55732;52.248;-0.844;2022-12-07T04:19:29;10.50;;;5.00;;
62925;SDS011;55732;52.248;-0.844;2022-12-07T04:21:57;11.60;;;5.20;;
62925;SDS011;55732;52.248;-0.844;2022-12-07T04:24:24;10.20;;;4.90;;
62925;SDS011;55732;52.248;-0.844;2022-12-07T04:26:51;8.30;;;5.40;;
62925;SDS011;55732;52.248;-0.844;2022-12-07T04:29:17;13.60;;;4.80;;
62925;SDS011;55732;52.248;-0.844;2022-12-07T04:31:43;11.10;;;5.00;;
62925;SDS011;55732;52.248;-0.844;2022-12-07T04:34:09;8.70;;;4.40;;
62925;SDS011;55732;52.248;-0.844;2022-12-07T04:36:35;14.20;;;5.10;;
62925;SDS011;55732;52.248;-0.844;2022-12-07T04:39:01;12.00;;;4.60;;
62925;SDS011;55732;52.248;-0.844;2022-12-07T04:41:29;9.60;;;4.60;;
62925;SDS011;55732;52.248;-0.844;2022-12-07T04:43:54;8.60;;;5.40;;
62925;SDS011;55732;52.248;-0.844;2022-12-07T04:46:21;9.20;;;5.70;;
62925;SDS011;55732;52.248;-0.844;2022-12-07T04:48:48;11.30;;;4.90;;
62925;SDS011;55732;52.248;-0.844;2022-12-07T04:51:15;9.40;;;5.50;;
62925;SDS011;55732;52.248;-0.844;2022-12-07T04:53:43;14.30;;;6.60;;
62925;SDS011;55732;52.248;-0.844;2022-12-07T04:56:09;11.60;;;6.20;;
62925;SDS011;55732;52.248;-0.844;2022-12-07T04:58:34;9.60;;;6.10;;
62925;SDS011;55732;52.248;-0.844;2022-12-07T05:01:00;12.90;;;6.30;;
62925;SDS011;55732;52.248;-0.844;2022-12-07T05:03:25;12.50;;;6.80;;
62925;SDS011;55732;52.248;-0.844;2022-12-07T05:05:50;14.00;;;6.40;;
62925;SDS011;55732;52.248;-0.844;2022-12-07T05:08:16;12.30;;;6.40;;
62925;SDS011;55732;52.248;-0.844;2022-12-07T05:10:41;10.40;;;6.50;;
62925;SDS011;55732;52.248;-0.844;2022-12-07T05:13:07;13.10;;;6.10;;
62925;SDS011;55732;52.248;-0.844;2022-12-07T05:15:32;18.40;;;7.40;;
62925;SDS011;55732;52.248;-0.844;2022-12-07T05:17:57;12.00;;;6.40;;
62925;SDS011;55732;52.248;-0.844;2022-12-07T05:20:23;13.70;;;6.50;;
62925;SDS011;55732;52.248;-0.844;2022-12-07T05:22:48;11.60;;;6.40;;
62925;SDS011;55732;52.248;-0.844;2022-12-07T05:25:14;14.40;;;7.40;;
62925;SDS011;55732;52.248;-0.844;2022-12-07T05:27:39;13.60;;;6.30;;
62925;SDS011;55732;52.248;-0.844;2022-12-07T05:30:05;12.40;;;6.70;;
62925;SDS011;55732;52.248;-0.844;2022-12-07T05:32:31;11.20;;;7.20;;
62925;SDS011;55732;52.248;-0.844;2022-12-07T05:34:56;11.10;;;7.50;;
62925;SDS011;55732;52.248;-0.844;2022-12-07T05:37:21;8.60;;;6.00;;
62925;SDS011;55732;52.248;-0.844;2022-12-07T05:39:47;12.80;;;6.90;;
62925;SDS011;55732;52.248;-0.844;2022-12-07T05:42:12;9.60;;;6.90;;
62925;SDS011;55732;52.248;-0.844;2022-12-07T05:44:41;11.10;;;7.20;;
62925;SDS011;55732;52.248;-0.844;2022-12-07T05:47:08;10.40;;;6.80;;
62925;SDS011;55732;52.248;-0.844;2022-12-07T05:49:34;12.10;;;7.50;;
62925;SDS011;55732;52.248;-0.844;2022-12-07T05:52:00;10.10;;;6.90;;
62925;SDS011;55732;52.248;-0.844;2022-12-07T05:54:26;12.30;;;6.70;;
62925;SDS011;55732;52.248;-0.844;2022-12-07T05:56:51;9.90;;;7.00;;
62925;SDS011;55732;52.248;-0.844;2022-12-07T05:59:17;15.90;;;7.30;;
62925;SDS011;55732;52.248;-0.844;2022-12-07T06:01:59;12.70;;;7.20;;
62925;SDS011;55732;52.248;-0.844;2022-12-07T06:04:31;12.20;;;5.90;;
62925;SDS011;55732;52.248;-0.844;2022-12-07T06:06:58;14.40;;;6.80;;
62925;SDS011;55732;52.248;-0.844;2022-12-07T06:09:24;12.70;;;6.30;;
62925;SDS011;55732;52.248;-0.844;2022-12-07T06:11:51;8.90;;;6.30;;
62925;SDS011;55732;52.248;-0.844;2022-12-07T06:14:36;13.90;;;6.50;;
62925;SDS011;55732;52.248;-0.844;2022-12-07T06:17:01;11.40;;;6.40;;
62925;SDS011;55732;52.248;-0.844;2022-12-07T06:19:27;11.80;;;6.30;;
62925;SDS011;55732;52.248;-0.844;2022-12-07T06:21:53;17.20;;;7.20;;
62925;SDS011;55732;52.248;-0.844;2022-12-07T06:24:19;12.90;;;7.30;;
62925;SDS011;55732;52.248;-0.844;2022-12-07T06:26:45;12.10;;;6.90;;
62925;SDS011;55732;52.248;-0.844;2022-12-07T06:29:11;13.30;;;6.80;;
62925;SDS011;55732;52.248;-0.844;2022-12-07T06:31:37;12.70;;;7.00;;
62925;SDS011;55732;52.248;-0.844;2022-12-07T06:34:04;9.70;;;5.80;;
62925;SDS011;55732;52.248;-0.844;2022-12-07T06:36:31;14.90;;;7.00;;
62925;SDS011;55732;52.248;-0.844;2022-12-07T06:38:57;15.60;;;7.10;;
62925;SDS011;55732;52.248;-0.844;2022-12-07T06:41:23;10.40;;;6.70;;
62925;SDS011;55732;52.248;-0.844;2022-12-07T06:43:49;11.50;;;7.20;;
62925;SDS011;55732;52.248;-0.844;2022-12-07T06:46:14;16.70;;;7.20;;
62925;SDS011;55732;52.248;-0.844;2022-12-07T06:48:40;12.10;;;7.60;;
62925;SDS011;55732;52.248;-0.844;2022-12-07T06:51:07;11.90;;;6.70;;
62925;SDS011;55732;52.248;-0.844;2022-12-07T06:53:32;16.40;;;7.10;;
62925;SDS011;55732;52.248;-0.844;2022-12-07T06:55:58;11.40;;;6.70;;
62925;SDS011;55732;52.248;-0.844;2022-12-07T06:58:23;11.60;;;6.80;;
62925;SDS011;55732;52.248;-0.844;2022-12-07T07:00:49;16.00;;;7.90;;
62925;SDS011;55732;52.248;-0.844;2022-12-07T07:03:15;12.10;;;6.30;;
62925;SDS011;55732;52.248;-0.844;2022-12-07T07:05:42;16.30;;;7.40;;
62925;SDS011;55732;52.248;-0.844;2022-12-07T07:08:08;13.80;;;7.60;;
62925;SDS011;55732;52.248;-0.844;2022-12-07T07:10:34;11.10;;;7.30;;
62925;SDS011;55732;52.248;-0.844;2022-12-07T07:13:00;10.50;;;8.10;;
62925;SDS011;55732;52.248;-0.844;2022-12-07T07:15:25;14.80;;;7.60;;
62925;SDS011;55732;52.248;-0.844;2022-12-07T07:17:51;15.00;;;7.70;;
62925;SDS011;55732;52.248;-0.844;2022-12-07T07:20:16;11.90;;;8.00;;
62925;SDS011;55732;52.248;-0.844;2022-12-07T07:22:41;13.40;;;7.90;;
62925;SDS011;55732;52.248;-0.844;2022-12-07T07:25:07;12.50;;;7.90;;
62925;SDS011;55732;52.248;-0.844;2022-12-07T07:27:32;17.80;;;8.60;;
62925;SDS011;55732;52.248;-0.844;2022-12-07T07:29:58;14.30;;;9.10;;
62925;SDS011;55732;52.248;-0.844;2022-12-07T07:32:23;15.30;;;8.70;;
62925;SDS011;55732;52.248;-0.844;2022-12-07T07:34:48;14.60;;;8.90;;
62925;SDS011;55732;52.248;-0.844;2022-12-07T07:37:14;14.10;;;8.60;;
62925;SDS011;55732;52.248;-0.844;2022-12-07T07:39:39;12.90;;;8.50;;
62925;SDS011;55732;52.248;-0.844;2022-12-07T07:42:05;16.80;;;8.60;;
62925;SDS011;55732;52.248;-0.844;2022-12-07T07:44:32;14.90;;;8.30;;
62925;SDS011;55732;52.248;-0.844;2022-12-07T07:46:58;15.10;;;7.30;;
62925;SDS011;55732;52.248;-0.844;2022-12-07T07:49:24;17.60;;;8.90;;
62925;SDS011;55732;52.248;-0.844;2022-12-07T07:51:49;15.80;;;9.00;;
62925;SDS011;55732;52.248;-0.844;2022-12-07T07:54:15;17.60;;;8.50;;
62925;SDS011;55732;52.248;-0.844;2022-12-07T07:56:40;16.10;;;9.00;;
62925;SDS011;55732;52.248;-0.844;2022-12-07T07:59:06;14.70;;;8.20;;
62925;SDS011;55732;52.248;-0.844;2022-12-07T08:01:31;12.10;;;7.90;;
62925;SDS011;55732;52.248;-0.844;2022-12-07T08:03:56;16.70;;;9.50;;
62925;SDS011;55732;52.248;-0.844;2022-12-07T08:06:22;17.50;;;9.30;;
62925;SDS011;55732;52.248;-0.844;2022-12-07T08:08:47;16.20;;;9.10;;
62925;SDS011;55732;52.248;-0.844;2022-12-07T08:11:12;14.40;;;8.70;;
62925;SDS011;55732;52.248;-0.844;2022-12-07T08:13:38;13.60;;;8.60;;
62925;SDS011;55732;52.248;-0.844;2022-12-07T08:16:07;15.70;;;7.90;;
62925;SDS011;55732;52.248;-0.844;2022-12-07T08:18:36;13.50;;;9.00;;
62925;SDS011;55732;52.248;-0.844;2022-12-07T08:21:03;17.00;;;8.50;;
62925;SDS011;55732;52.248;-0.844;2022-12-07T08:23:28;15.00;;;8.60;;
62925;SDS011;55732;52.248;-0.844;2022-12-07T08:25:59;11.80;;;8.60;;
62925;SDS011;55732;52.248;-0.844;2022-12-07T08:28:29;16.00;;;8.20;;
62925;SDS011;55732;52.248;-0.844;2022-12-07T08:30:58;15.30;;;8.70;;
62925;SDS011;55732;52.248;-0.844;2022-12-07T08:33:25;16.40;;;9.20;;
62925;SDS011;55732;52.248;-0.844;2022-12-07T08:35:51;15.20;;;9.10;;
62925;SDS011;55732;52.248;-0.844;2022-12-07T08:38:16;13.60;;;8.30;;
62925;SDS011;55732;52.248;-0.844;2022-12-07T08:40:41;13.80;;;8.40;;
62925;SDS011;55732;52.248;-0.844;2022-12-07T08:43:07;15.10;;;8.60;;
62925;SDS011;55732;52.248;-0.844;2022-12-07T08:45:32;12.60;;;8.20;;
62925;SDS011;55732;52.248;-0.844;2022-12-07T08:48:07;13.80;;;8.40;;
62925;SDS011;55732;52.248;-0.844;2022-12-07T08:50:37;15.50;;;8.80;;
62925;SDS011;55732;52.248;-0.844;2022-12-07T08:53:03;12.20;;;8.30;;
62925;SDS011;55732;52.248;-0.844;2022-12-07T08:55:30;17.90;;;9.20;;
62925;SDS011;55732;52.248;-0.844;2022-12-07T08:57:57;13.30;;;8.60;;
62925;SDS011;55732;52.248;-0.844;2022-12-07T09:00:24;15.60;;;8.80;;
62925;SDS011;55732;52.248;-0.844;2022-12-07T09:02:51;14.50;;;8.50;;
62925;SDS011;55732;52.248;-0.844;2022-12-07T09:05:16;10.70;;;7.50;;
62925;SDS011;55732;52.248;-0.844;2022-12-07T09:07:46;15.40;;;7.80;;
62925;SDS011;55732;52.248;-0.844;2022-12-07T09:10:16;14.70;;;7.50;;
62925;SDS011;55732;52.248;-0.844;2022-12-07T09:12:43;12.20;;;7.70;;
62925;SDS011;55732;52.248;-0.844;2022-12-07T09:15:08;11.50;;;8.00;;
62925;SDS011;55732;52.248;-0.844;2022-12-07T09:17:34;16.50;;;8.60;;
62925;SDS011;55732;52.248;-0.844;2022-12-07T09:20:01;17.30;;;8.30;;
62925;SDS011;55732;52.248;-0.844;2022-12-07T09:22:30;18.00;;;7.70;;
62925;SDS011;55732;52.248;-0.844;2022-12-07T09:24:57;13.50;;;8.70;;
62925;SDS011;55732;52.248;-0.844;2022-12-07T09:27:22;14.40;;;7.50;;
62925;SDS011;55732;52.248;-0.844;2022-12-07T09:29:48;13.10;;;7.50;;
62925;SDS011;55732;52.248;-0.844;2022-12-07T09:32:13;11.00;;;7.20;;
62925;SDS011;55732;52.248;-0.844;2022-12-07T09:34:39;12.40;;;7.00;;
62925;SDS011;55732;52.248;-0.844;2022-12-07T09:37:04;10.40;;;7.20;;
62925;SDS011;55732;52.248;-0.844;2022-12-07T09:39:30;13.80;;;7.20;;
62925;SDS011;55732;52.248;-0.844;2022-12-07T09:41:56;13.80;;;7.00;;
62925;SDS011;55732;52.248;-0.844;2022-12-07T09:44:24;12.70;;;7.80;;
62925;SDS011;55732;52.248;-0.844;2022-12-07T09:46:51;14.40;;;7.10;;
62925;SDS011;55732;52.248;-0.844;2022-12-07T09:49:19;12.00;;;6.30;;
62925;SDS011;55732;52.248;-0.844;2022-12-07T09:54:51;8.40;;;6.20;;
62925;SDS011;55732;52.248;-0.844;2022-12-07T09:57:17;11.90;;;6.50;;
62925;SDS011;55732;52.248;-0.844;2022-12-07T10:00:00;10.40;;;6.70;;
62925;SDS011;55732;52.248;-0.844;2022-12-07T10:02:34;10.80;;;6.50;;
62925;SDS011;55732;52.248;-0.844;2022-12-07T10:05:07;14.80;;;6.30;;
62925;SDS011;55732;52.248;-0.844;2022-12-07T10:07:38;10.70;;;5.80;;
62925;SDS011;55732;52.248;-0.844;2022-12-07T10:10:04;10.20;;;5.50;;
62925;SDS011;55732;52.248;-0.844;2022-12-07T10:12:54;10.60;;;5.60;;
62925;SDS011;55732;52.248;-0.844;2022-12-07T10:15:22;8.30;;;5.20;;
62925;SDS011;55732;52.248;-0.844;2022-12-07T10:17:48;9.50;;;4.50;;
62925;SDS011;55732;52.248;-0.844;2022-12-07T10:20:20;14.60;;;5.00;;
62925;SDS011;55732;52.248;-0.844;2022-12-07T10:22:58;7.70;;;4.20;;
62925;SDS011;55732;52.248;-0.844;2022-12-07T10:25:35;13.70;;;5.60;;
62925;SDS011;55732;52.248;-0.844;2022-12-07T10:33:37;7.60;;;4.10;;
62925;SDS011;55732;52.248;-0.844;2022-12-07T10:41:28;7.60;;;4.80;;
62925;SDS011;55732;52.248;-0.844;2022-12-07T10:43:55;9.40;;;4.60;;
62925;SDS011;55732;52.248;-0.844;2022-12-07T10:52:17;10.20;;;4.90;;
62925;SDS011;55732;52.248;-0.844;2022-12-07T10:57:49;10.50;;;3.70;;
62925;SDS011;55732;52.248;-0.844;2022-12-07T11:00:24;4.60;;;3.40;;
62925;SDS011;55732;52.248;-0.844;2022-12-07T11:11:20;9.20;;;4.40;;
62925;SDS011;55732;52.248;-0.844;2022-12-07T11:14:00;8.80;;;3.70;;
62925;SDS011;55732;52.248;-0.844;2022-12-07T11:16:39;8.40;;;3.50;;
62925;SDS011;55732;52.248;-0.844;2022-12-07T11:19:22;9.80;;;3.60;;
62925;SDS011;55732;52.248;-0.844;2022-12-07T11:33:51;5.70;;;3.00;;
62925;SDS011;55732;52.248;-0.844;2022-12-07T11:36:33;4.80;;;2.80;;
62925;SDS011;55732;52.248;-0.844;2022-12-07T11:39:12;4.60;;;2.40;;
62925;SDS011;55732;52.248;-0.844;2022-12-07T11:41:41;5.80;;;2.90;;
62925;SDS011;55732;52.248;-0.844;2022-12-07T11:44:11;3.70;;;2.30;;
62925;SDS011;55732;52.248;-0.844;2022-12-07T11:52:27;6.40;;;2.70;;
62925;SDS011;55732;52.248;-0.844;2022-12-07T11:54:55;5.50;;;2.80;;
62925;SDS011;55732;52.248;-0.844;2022-12-07T11:57:28;14.30;;;4.90;;
62925;SDS011;55732;52.248;-0.844;2022-12-07T12:00:02;12.90;;;4.50;;
62925;SDS011;55732;52.248;-0.844;2022-12-07T12:02:32;10.30;;;5.50;;
62925;SDS011;55732;52.248;-0.844;2022-12-07T12:05:16;8.00;;;3.60;;
62925;SDS011;55732;52.248;-0.844;2022-12-07T12:07:44;9.00;;;4.40;;
62925;SDS011;55732;52.248;-0.844;2022-12-07T12:10:26;5.70;;;3.90;;
62925;SDS011;55732;52.248;-0.844;2022-12-07T12:18:42;6.10;;;3.80;;
62925;SDS011;55732;52.248;-0.844;2022-12-07T12:21:19;7.40;;;2.80;;
62925;SDS011;55732;52.248;-0.844;2022-12-07T12:23:55;8.20;;;3.00;;
62925;SDS011;55732;52.248;-0.844;2022-12-07T12:26:35;10.20;;;3.30;;
62925;SDS011;55732;52.248;-0.844;2022-12-07T12:29:50;3.80;;;2.40;;
62925;SDS011;55732;52.248;-0.844;2022-12-07T12:32:37;9.30;;;2.70;;
62925;SDS011;55732;52.248;-0.844;2022-12-07T12:37:38;7.70;;;2.90;;
62925;SDS011;55732;52.248;-0.844;2022-12-07T12:45:28;9.60;;;4.00;;
62925;SDS011;55732;52.248;-0.844;2022-12-07T12:50:29;3.70;;;2.40;;
62925;SDS011;55732;52.248;-0.844;2022-12-07T12:53:02;7.70;;;3.30;;
62925;SDS011;55732;52.248;-0.844;2022-12-07T12:58:25;7.00;;;2.90;;
62925;SDS011;55732;52.248;-0.844;2022-12-07T13:03:58;6.00;;;3.20;;
62925;SDS011;55732;52.248;-0.844;2022-12-07T13:08:49;8.00;;;3.80;;
62925;SDS011;55732;52.248;-0.844;2022-12-07T13:11:20;8.50;;;3.60;;
62925;SDS011;55732;52.248;-0.844;2022-12-07T13:14:17;8.80;;;3.80;;
62925;SDS011;55732;52.248;-0.844;2022-12-07T13:16:58;8.10;;;3.40;;
62925;SDS011;55732;52.248;-0.844;2022-12-07T13:19:46;10.30;;;4.60;;
62925;SDS011;55732;52.248;-0.844;2022-12-07T13:24:56;9.30;;;3.60;;
62925;SDS011;55732;52.248;-0.844;2022-12-07T13:27:24;7.40;;;3.60;;
62925;SDS011;55732;52.248;-0.844;2022-12-07T13:29:51;10.20;;;3.30;;
62925;SDS011;55732;52.248;-0.844;2022-12-07T13:32:24;7.30;;;3.50;;
62925;SDS011;55732;52.248;-0.844;2022-12-07T13:34:52;9.40;;;3.40;;
62925;SDS011;55732;52.248;-0.844;2022-12-07T13:37:21;8.80;;;3.80;;
62925;SDS011;55732;52.248;-0.844;2022-12-07T13:42:43;5.00;;;3.20;;
62925;SDS011;55732;52.248;-0.844;2022-12-07T13:45:25;6.10;;;3.10;;
62925;SDS011;55732;52.248;-0.844;2022-12-07T13:48:19;8.40;;;3.70;;
62925;SDS011;55732;52.248;-0.844;2022-12-07T13:51:02;6.30;;;3.00;;
62925;SDS011;55732;52.248;-0.844;2022-12-07T13:53:29;10.00;;;3.20;;
62925;SDS011;55732;52.248;-0.844;2022-12-07T13:55:56;7.30;;;2.90;;
62925;SDS011;55732;52.248;-0.844;2022-12-07T13:58:26;6.50;;;3.10;;
62925;SDS011;55732;52.248;-0.844;2022-12-07T14:00:54;10.00;;;3.90;;
62925;SDS011;55732;52.248;-0.844;2022-12-07T14:03:25;13.00;;;3.90;;
62925;SDS011;55732;52.248;-0.844;2022-12-07T14:06:04;4.30;;;3.10;;
62925;SDS011;55732;52.248;-0.844;2022-12-07T14:08:32;7.70;;;2.50;;
62925;SDS011;55732;52.248;-0.844;2022-12-07T14:10:58;6.00;;;3.60;;
62925;SDS011;55732;52.248;-0.844;2022-12-07T14:13:29;6.80;;;3.30;;
62925;SDS011;55732;52.248;-0.844;2022-12-07T14:15:55;8.50;;;4.00;;
62925;SDS011;55732;52.248;-0.844;2022-12-07T14:18:38;7.30;;;3.50;;
62925;SDS011;55732;52.248;-0.844;2022-12-07T14:21:05;11.00;;;4.20;;
62925;SDS011;55732;52.248;-0.844;2022-12-07T14:23:31;8.70;;;3.40;;
62925;SDS011;55732;52.248;-0.844;2022-12-07T14:26:07;7.10;;;4.00;;
62925;SDS011;55732;52.248;-0.844;2022-12-07T14:28:40;8.20;;;3.80;;
62925;SDS011;55732;52.248;-0.844;2022-12-07T14:31:10;8.80;;;3.80;;
62925;SDS011;55732;52.248;-0.844;2022-12-07T14:33:38;7.50;;;3.60;;
62925;SDS011;55732;52.248;-0.844;2022-12-07T14:36:04;7.40;;;4.30;;
62925;SDS011;55732;52.248;-0.844;2022-12-07T14:38:30;11.40;;;3.90;;
62925;SDS011;55732;52.248;-0.844;2022-12-07T14:40:55;10.90;;;3.80;;
62925;SDS011;55732;52.248;-0.844;2022-12-07T14:43:44;13.30;;;3.80;;
62925;SDS011;55732;52.248;-0.844;2022-12-07T14:46:10;7.80;;;3.60;;
62925;SDS011;55732;52.248;-0.844;2022-12-07T14:48:35;8.40;;;3.80;;
62925;SDS011;55732;52.248;-0.844;2022-12-07T14:51:01;9.90;;;3.70;;
62925;SDS011;55732;52.248;-0.844;2022-12-07T14:53:28;11.30;;;3.70;;
62925;SDS011;55732;52.248;-0.844;2022-12-07T14:55:58;8.60;;;4.30;;
62925;SDS011;55732;52.248;-0.844;2022-12-07T14:58:24;10.10;;;3.60;;
62925;SDS011;55732;52.248;-0.844;2022-12-07T15:00:49;7.60;;;3.70;;
62925;SDS011;55732;52.248;-0.844;2022-12-07T15:03:15;9.20;;;3.60;;
62925;SDS011;55732;52.248;-0.844;2022-12-07T15:05:40;6.00;;;3.40;;
62925;SDS011;55732;52.248;-0.844;2022-12-07T15:08:08;7.50;;;3.80;;
62925;SDS011;55732;52.248;-0.844;2022-12-07T15:10:35;8.70;;;4.00;;
62925;SDS011;55732;52.248;-0.844;2022-12-07T15:13:04;6.60;;;3.80;;
62925;SDS011;55732;52.248;-0.844;2022-12-07T15:15:49;9.30;;;3.50;;
62925;SDS011;55732;52.248;-0.844;2022-12-07T15:18:16;10.50;;;3.60;;
62925;SDS011;55732;52.248;-0.844;2022-12-07T15:20:43;9.50;;;3.90;;
62925;SDS011;55732;52.248;-0.844;2022-12-07T15:23:09;11.50;;;4.30;;
62925;SDS011;55732;52.248;-0.844;2022-12-07T15:25:35;7.30;;;3.50;;
62925;SDS011;55732;52.248;-0.844;2022-12-07T15:28:00;11.20;;;4.70;;
62925;SDS011;55732;52.248;-0.844;2022-12-07T15:30:26;7.90;;;4.30;;
62925;SDS011;55732;52.248;-0.844;2022-12-07T15:32:52;6.40;;;3.80;;
62925;SDS011;55732;52.248;-0.844;2022-12-07T15:35:17;9.20;;;3.80;;
62925;SDS011;55732;52.248;-0.844;2022-12-07T15:37:43;13.10;;;4.70;;
62925;SDS011;55732;52.248;-0.844;2022-12-07T15:40:09;9.40;;;4.60;;
62925;SDS011;55732;52.248;-0.844;2022-12-07T15:42:36;10.60;;;4.10;;
62925;SDS011;55732;52.248;-0.844;2022-12-07T15:45:01;10.30;;;4.50;;
62925;SDS011;55732;52.248;-0.844;2022-12-07T15:47:34;6.70;;;3.90;;
62925;SDS011;55732;52.248;-0.844;2022-12-07T15:50:02;6.10;;;4.00;;
62925;SDS011;55732;52.248;-0.844;2022-12-07T15:52:29;6.90;;;4.30;;
62925;SDS011;55732;52.248;-0.844;2022-12-07T15:54:55;7.70;;;3.80;;
62925;SDS011;55732;52.248;-0.844;2022-12-07T15:57:21;8.60;;;4.30;;
62925;SDS011;55732;52.248;-0.844;2022-12-07T15:59:46;7.50;;;4.20;;
62925;SDS011;55732;52.248;-0.844;2022-12-07T16:02:12;6.50;;;3.50;;
62925;SDS011;55732;52.248;-0.844;2022-12-07T16:04:38;7.50;;;3.90;;
62925;SDS011;55732;52.248;-0.844;2022-12-07T16:07:03;6.60;;;4.10;;
62925;SDS011;55732;52.248;-0.844;2022-12-07T16:09:29;9.60;;;4.10;;
62925;SDS011;55732;52.248;-0.844;2022-12-07T16:11:54;9.50;;;5.00;;
62925;SDS011;55732;52.248;-0.844;2022-12-07T16:14:20;14.40;;;5.20;;
62925;SDS011;55732;52.248;-0.844;2022-12-07T16:16:46;12.30;;;5.80;;
62925;SDS011;55732;52.248;-0.844;2022-12-07T16:19:12;13.10;;;5.70;;
62925;SDS011;55732;52.248;-0.844;2022-12-07T16:21:38;9.30;;;5.80;;
62925;SDS011;55732;52.248;-0.844;2022-12-07T16:24:04;12.00;;;6.30;;
62925;SDS011;55732;52.248;-0.844;2022-12-07T16:26:30;18.30;;;5.90;;
62925;SDS011;55732;52.248;-0.844;2022-12-07T16:28:56;15.00;;;6.10;;
62925;SDS011;55732;52.248;-0.844;2022-12-07T16:31:23;19.30;;;6.20;;
62925;SDS011;55732;52.248;-0.844;2022-12-07T16:33:52;14.30;;;6.30;;